sensor_id;sensor_type;location;lat;lon;timestamp;temperature;humidity
18694;DHT22;9477;51.414;10.362;2024-01-06T00:01:52;10.50;99.90
18694;DHT22;9477;51.414;10.362;2024-01-06T00:03:55;10.50;99.90
18694;DHT22;9477;51.414;10.362;2024-01-06T00:05:59;10.40;99.90
18694;DHT22;9477;51.414;10.362;2024-01-06T00:08:02;10.40;99.90
18694;DHT22;9477;51.414;10.362;2024-01-06T00:10:06;10.40;99.90
18694;DHT22;9477;51.414;10.362;2024-01-06T00:12:09;10.40;99.90
18694;DHT22;9477;51.414;10.362;2024-01-06T00:14:12;10.40;99.90
18694;DHT22;9477;51.414;10.362;2024-01-06T00:16:16;10.40;99.90
18694;DHT22;9477;51.414;10.362;2024-01-06T00:18:19;10.40;99.90
18694;DHT22;9477;51.414;10.362;2024-01-06T00:20:22;10.40;99.90
18694;DHT22;9477;51.414;10.362;2024-01-06T00:22:25;10.40;99.90
18694;DHT22;9477;51.414;10.362;2024-01-06T00:24:28;10.40;99.90
18694;DHT22;9477;51.414;10.362;2024-01-06T00:26:31;10.50;99.90
18694;DHT22;9477;51.414;10.362;2024-01-06T00:28:34;10.50;99.90
18694;DHT22;9477;51.414;10.362;2024-01-06T00:30:37;10.50;99.90
18694;DHT22;9477;51.414;10.362;2024-01-06T00:32:40;10.50;99.90
18694;DHT22;9477;51.414;10.362;2024-01-06T00:34:43;10.50;99.90
18694;DHT22;9477;51.414;10.362;2024-01-06T00:36:46;10.50;99.90
18694;DHT22;9477;51.414;10.362;2024-01-06T00:38:50;10.50;99.90
18694;DHT22;9477;51.414;10.362;2024-01-06T00:40:53;10.50;99.90
18694;DHT22;9477;51.414;10.362;2024-01-06T00:42:55;10.40;99.90
18694;DHT22;9477;51.414;10.362;2024-01-06T00:44:58;10.50;99.90
18694;DHT22;9477;51.414;10.362;2024-01-06T00:47:01;10.50;99.90
18694;DHT22;9477;51.414;10.362;2024-01-06T00:49:04;10.40;99.90
18694;DHT22;9477;51.414;10.362;2024-01-06T00:51:07;10.40;99.90
18694;DHT22;9477;51.414;10.362;2024-01-06T00:53:11;10.40;99.90
18694;DHT22;9477;51.414;10.362;2024-01-06T00:55:15;10.40;99.90
18694;DHT22;9477;51.414;10.362;2024-01-06T00:57:18;10.40;99.90
18694;DHT22;9477;51.414;10.362;2024-01-06T00:59:26;10.40;99.90
18694;DHT22;9477;51.414;10.362;2024-01-06T01:01:29;10.40;99.90
18694;DHT22;9477;51.414;10.362;2024-01-06T01:03:30;10.40;99.90
18694;DHT22;9477;51.414;10.362;2024-01-06T01:05:33;10.30;99.90
18694;DHT22;9477;51.414;10.362;2024-01-06T01:07:36;10.30;99.90
18694;DHT22;9477;51.414;10.362;2024-01-06T01:09:39;10.30;99.90
18694;DHT22;9477;51.414;10.362;2024-01-06T01:11:42;10.20;99.90
18694;DHT22;9477;51.414;10.362;2024-01-06T01:13:45;10.20;99.90
18694;DHT22;9477;51.414;10.362;2024-01-06T01:15:48;10.20;99.90
18694;DHT22;9477;51.414;10.362;2024-01-06T01:17:51;10.20;99.90
18694;DHT22;9477;51.414;10.362;2024-01-06T01:19:54;10.20;99.90
18694;DHT22;9477;51.414;10.362;2024-01-06T01:21:57;10.20;99.90
18694;DHT22;9477;51.414;10.362;2024-01-06T01:24:00;10.20;99.90
18694;DHT22;9477;51.414;10.362;2024-01-06T01:26:04;10.30;99.90
18694;DHT22;9477;51.414;10.362;2024-01-06T01:28:08;10.30;99.90
18694;DHT22;9477;51.414;10.362;2024-01-06T01:30:11;10.40;99.90
18694;DHT22;9477;51.414;10.362;2024-01-06T01:32:16;10.30;99.90
18694;DHT22;9477;51.414;10.362;2024-01-06T01:34:19;10.30;99.90
18694;DHT22;9477;51.414;10.362;2024-01-06T01:36:21;10.30;99.90
18694;DHT22;9477;51.414;10.362;2024-01-06T01:38:24;10.30;99.90
18694;DHT22;9477;51.414;10.362;2024-01-06T01:40:27;10.30;99.90
18694;DHT22;9477;51.414;10.362;2024-01-06T01:42:30;10.40;99.90
18694;DHT22;9477;51.414;10.362;2024-01-06T01:44:34;10.40;99.90
18694;DHT22;9477;51.414;10.362;2024-01-06T01:46:37;10.40;99.90
18694;DHT22;9477;51.414;10.362;2024-01-06T01:48:41;10.40;99.90
18694;DHT22;9477;51.414;10.362;2024-01-06T01:50:44;10.30;99.90
18694;DHT22;9477;51.414;10.362;2024-01-06T01:52:48;10.30;99.90
18694;DHT22;9477;51.414;10.362;2024-01-06T01:54:52;10.30;99.90
18694;DHT22;9477;51.414;10.362;2024-01-06T01:56:55;10.30;99.90
18694;DHT22;9477;51.414;10.362;2024-01-06T01:58:59;10.30;99.90
18694;DHT22;9477;51.414;10.362;2024-01-06T02:01:03;10.40;99.90
18694;DHT22;9477;51.414;10.362;2024-01-06T02:03:07;10.30;99.90
18694;DHT22;9477;51.414;10.362;2024-01-06T02:05:11;10.30;99.90
18694;DHT22;9477;51.414;10.362;2024-01-06T02:07:14;10.30;99.90
18694;DHT22;9477;51.414;10.362;2024-01-06T02:09:17;10.30;99.90
18694;DHT22;9477;51.414;10.362;2024-01-06T02:11:20;10.40;99.90
18694;DHT22;9477;51.414;10.362;2024-01-06T02:13:23;10.30;99.90
18694;DHT22;9477;51.414;10.362;2024-01-06T02:15:26;10.30;99.90
18694;DHT22;9477;51.414;10.362;2024-01-06T02:17:30;10.30;99.90
18694;DHT22;9477;51.414;10.362;2024-01-06T02:19:33;10.30;99.90
18694;DHT22;9477;51.414;10.362;2024-01-06T02:21:40;10.30;99.90
18694;DHT22;9477;51.414;10.362;2024-01-06T02:23:45;10.30;99.90
18694;DHT22;9477;51.414;10.362;2024-01-06T02:25:47;10.30;99.90
18694;DHT22;9477;51.414;10.362;2024-01-06T02:27:49;10.40;99.90
18694;DHT22;9477;51.414;10.362;2024-01-06T02:29:52;10.30;99.90
18694;DHT22;9477;51.414;10.362;2024-01-06T02:31:55;10.30;99.90
18694;DHT22;9477;51.414;10.362;2024-01-06T02:33:58;10.20;99.90
18694;DHT22;9477;51.414;10.362;2024-01-06T02:36:01;10.20;99.90
18694;DHT22;9477;51.414;10.362;2024-01-06T02:38:04;10.30;99.90
18694;DHT22;9477;51.414;10.362;2024-01-06T02:40:09;10.20;99.90
18694;DHT22;9477;51.414;10.362;2024-01-06T02:42:12;10.20;99.90
18694;DHT22;9477;51.414;10.362;2024-01-06T02:44:15;10.30;99.90
18694;DHT22;9477;51.414;10.362;2024-01-06T02:46:18;10.30;99.90
18694;DHT22;9477;51.414;10.362;2024-01-06T02:48:21;10.30;99.90
18694;DHT22;9477;51.414;10.362;2024-01-06T02:50:24;10.20;99.90
18694;DHT22;9477;51.414;10.362;2024-01-06T02:52:27;10.20;99.90
18694;DHT22;9477;51.414;10.362;2024-01-06T02:54:30;10.10;99.90
18694;DHT22;9477;51.414;10.362;2024-01-06T02:56:34;10.10;99.90
18694;DHT22;9477;51.414;10.362;2024-01-06T02:58:37;10.10;99.90
18694;DHT22;9477;51.414;10.362;2024-01-06T03:00:39;10.10;99.90
18694;DHT22;9477;51.414;10.362;2024-01-06T03:02:42;10.00;99.90
18694;DHT22;9477;51.414;10.362;2024-01-06T03:04:45;9.90;99.90
18694;DHT22;9477;51.414;10.362;2024-01-06T03:06:48;9.90;99.90
18694;DHT22;9477;51.414;10.362;2024-01-06T03:08:55;10.00;99.90
18694;DHT22;9477;51.414;10.362;2024-01-06T03:10:58;9.90;99.90
18694;DHT22;9477;51.414;10.362;2024-01-06T03:13:03;9.90;99.90
18694;DHT22;9477;51.414;10.362;2024-01-06T03:15:06;9.90;99.90
18694;DHT22;9477;51.414;10.362;2024-01-06T03:17:09;10.00;99.90
18694;DHT22;9477;51.414;10.362;2024-01-06T03:19:13;10.00;99.90
18694;DHT22;9477;51.414;10.362;2024-01-06T03:21:19;10.00;99.90
18694;DHT22;9477;51.414;10.362;2024-01-06T03:23:22;10.10;99.90
18694;DHT22;9477;51.414;10.362;2024-01-06T03:25:25;10.10;99.90
18694;DHT22;9477;51.414;10.362;2024-01-06T03:27:28;10.10;99.90
18694;DHT22;9477;51.414;10.362;2024-01-06T03:29:31;10.10;99.90
18694;DHT22;9477;51.414;10.362;2024-01-06T03:31:34;10.00;99.90
18694;DHT22;9477;51.414;10.362;2024-01-06T03:33:36;10.00;99.90
18694;DHT22;9477;51.414;10.362;2024-01-06T03:35:39;10.10;99.90
18694;DHT22;9477;51.414;10.362;2024-01-06T03:37:42;10.00;99.90
18694;DHT22;9477;51.414;10.362;2024-01-06T03:39:48;10.00;99.90
18694;DHT22;9477;51.414;10.362;2024-01-06T03:41:51;10.00;99.90
18694;DHT22;9477;51.414;10.362;2024-01-06T03:43:54;10.00;99.90
18694;DHT22;9477;51.414;10.362;2024-01-06T03:45:58;10.00;99.90
18694;DHT22;9477;51.414;10.362;2024-01-06T03:48:02;10.00;99.90
18694;DHT22;9477;51.414;10.362;2024-01-06T03:50:05;10.00;99.90
18694;DHT22;9477;51.414;10.362;2024-01-06T03:52:08;10.10;99.90
18694;DHT22;9477;51.414;10.362;2024-01-06T03:54:11;10.10;99.90
18694;DHT22;9477;51.414;10.362;2024-01-06T03:56:14;10.10;99.90
18694;DHT22;9477;51.414;10.362;2024-01-06T03:58:17;10.10;99.90
18694;DHT22;9477;51.414;10.362;2024-01-06T04:00:20;10.10;99.90
18694;DHT22;9477;51.414;10.362;2024-01-06T04:02:24;10.00;99.90
18694;DHT22;9477;51.414;10.362;2024-01-06T04:04:27;10.00;99.90
18694;DHT22;9477;51.414;10.362;2024-01-06T04:06:29;10.00;99.90
18694;DHT22;9477;51.414;10.362;2024-01-06T04:08:33;10.00;99.90
18694;DHT22;9477;51.414;10.362;2024-01-06T04:10:36;10.00;99.90
18694;DHT22;9477;51.414;10.362;2024-01-06T04:12:39;10.00;99.90
18694;DHT22;9477;51.414;10.362;2024-01-06T04:14:41;10.00;99.90
18694;DHT22;9477;51.414;10.362;2024-01-06T04:16:44;10.00;99.90
18694;DHT22;9477;51.414;10.362;2024-01-06T04:18:48;10.00;99.90
18694;DHT22;9477;51.414;10.362;2024-01-06T04:20:51;10.00;99.90
18694;DHT22;9477;51.414;10.362;2024-01-06T04:22:53;10.00;99.90
18694;DHT22;9477;51.414;10.362;2024-01-06T04:24:56;10.00;99.90
18694;DHT22;9477;51.414;10.362;2024-01-06T04:26:59;9.90;99.90
18694;DHT22;9477;51.414;10.362;2024-01-06T04:29:02;9.90;99.90
18694;DHT22;9477;51.414;10.362;2024-01-06T04:31:05;9.80;99.90
18694;DHT22;9477;51.414;10.362;2024-01-06T04:33:12;9.80;99.90
18694;DHT22;9477;51.414;10.362;2024-01-06T04:35:17;9.90;99.90
18694;DHT22;9477;51.414;10.362;2024-01-06T04:37:20;9.90;99.90
18694;DHT22;9477;51.414;10.362;2024-01-06T04:39:23;10.00;99.90
18694;DHT22;9477;51.414;10.362;2024-01-06T04:41:26;10.00;99.90
18694;DHT22;9477;51.414;10.362;2024-01-06T04:43:29;10.10;99.90
18694;DHT22;9477;51.414;10.362;2024-01-06T04:45:32;10.10;99.90
18694;DHT22;9477;51.414;10.362;2024-01-06T04:47:35;10.10;99.90
18694;DHT22;9477;51.414;10.362;2024-01-06T04:49:37;10.20;99.90
18694;DHT22;9477;51.414;10.362;2024-01-06T04:51:42;10.20;99.90
18694;DHT22;9477;51.414;10.362;2024-01-06T04:53:45;10.10;99.90
18694;DHT22;9477;51.414;10.362;2024-01-06T04:55:47;10.10;99.90
18694;DHT22;9477;51.414;10.362;2024-01-06T04:57:50;10.10;99.90
18694;DHT22;9477;51.414;10.362;2024-01-06T04:59:52;10.00;99.90
18694;DHT22;9477;51.414;10.362;2024-01-06T05:01:57;10.10;99.90
18694;DHT22;9477;51.414;10.362;2024-01-06T05:04:00;10.10;99.90
18694;DHT22;9477;51.414;10.362;2024-01-06T05:06:04;10.10;99.90
18694;DHT22;9477;51.414;10.362;2024-01-06T05:08:08;10.10;99.90
18694;DHT22;9477;51.414;10.362;2024-01-06T05:10:11;10.10;99.90
18694;DHT22;9477;51.414;10.362;2024-01-06T05:12:14;10.10;99.90
18694;DHT22;9477;51.414;10.362;2024-01-06T05:14:16;10.10;99.90
18694;DHT22;9477;51.414;10.362;2024-01-06T05:16:18;10.20;99.90
18694;DHT22;9477;51.414;10.362;2024-01-06T05:18:21;10.20;99.90
18694;DHT22;9477;51.414;10.362;2024-01-06T05:20:24;10.20;99.90
18694;DHT22;9477;51.414;10.362;2024-01-06T05:22:27;10.20;99.90
18694;DHT22;9477;51.414;10.362;2024-01-06T05:24:30;10.20;99.90
18694;DHT22;9477;51.414;10.362;2024-01-06T05:26:33;10.20;99.90
18694;DHT22;9477;51.414;10.362;2024-01-06T05:28:35;10.20;99.90
18694;DHT22;9477;51.414;10.362;2024-01-06T05:30:38;10.20;99.90
18694;DHT22;9477;51.414;10.362;2024-01-06T05:32:41;10.20;99.90
18694;DHT22;9477;51.414;10.362;2024-01-06T05:34:44;10.20;99.90
18694;DHT22;9477;51.414;10.362;2024-01-06T05:36:47;10.20;99.90
18694;DHT22;9477;51.414;10.362;2024-01-06T05:38:50;10.20;99.90
18694;DHT22;9477;51.414;10.362;2024-01-06T05:40:55;10.20;99.90
18694;DHT22;9477;51.414;10.362;2024-01-06T05:42:58;10.20;99.90
18694;DHT22;9477;51.414;10.362;2024-01-06T05:45:01;10.20;99.90
18694;DHT22;9477;51.414;10.362;2024-01-06T05:47:04;10.10;99.90
18694;DHT22;9477;51.414;10.362;2024-01-06T05:49:07;10.10;99.90
18694;DHT22;9477;51.414;10.362;2024-01-06T05:51:11;10.10;99.90
18694;DHT22;9477;51.414;10.362;2024-01-06T05:53:14;10.00;99.90
18694;DHT22;9477;51.414;10.362;2024-01-06T05:55:21;10.00;99.90
18694;DHT22;9477;51.414;10.362;2024-01-06T05:57:25;10.00;99.90
18694;DHT22;9477;51.414;10.362;2024-01-06T05:59:28;9.90;99.90
18694;DHT22;9477;51.414;10.362;2024-01-06T06:01:31;9.90;99.90
18694;DHT22;9477;51.414;10.362;2024-01-06T06:03:33;9.90;99.90
18694;DHT22;9477;51.414;10.362;2024-01-06T06:05:36;9.90;99.90
18694;DHT22;9477;51.414;10.362;2024-01-06T06:07:39;10.00;99.90
18694;DHT22;9477;51.414;10.362;2024-01-06T06:09:42;10.00;99.90
18694;DHT22;9477;51.414;10.362;2024-01-06T06:11:45;9.90;99.90
18694;DHT22;9477;51.414;10.362;2024-01-06T06:13:49;9.90;99.90
18694;DHT22;9477;51.414;10.362;2024-01-06T06:15:52;9.80;99.90
18694;DHT22;9477;51.414;10.362;2024-01-06T06:17:55;9.90;99.90
18694;DHT22;9477;51.414;10.362;2024-01-06T06:20:01;10.00;99.90
18694;DHT22;9477;51.414;10.362;2024-01-06T06:22:04;10.00;99.90
18694;DHT22;9477;51.414;10.362;2024-01-06T06:24:07;10.00;99.90
18694;DHT22;9477;51.414;10.362;2024-01-06T06:26:10;10.10;99.90
18694;DHT22;9477;51.414;10.362;2024-01-06T06:28:14;10.00;99.90
18694;DHT22;9477;51.414;10.362;2024-01-06T06:30:17;10.00;99.90
18694;DHT22;9477;51.414;10.362;2024-01-06T06:32:20;9.90;99.90
18694;DHT22;9477;51.414;10.362;2024-01-06T06:34:23;9.90;99.90
18694;DHT22;9477;51.414;10.362;2024-01-06T06:36:26;9.90;99.90
18694;DHT22;9477;51.414;10.362;2024-01-06T06:38:29;9.80;99.90
18694;DHT22;9477;51.414;10.362;2024-01-06T06:40:32;9.80;99.90
18694;DHT22;9477;51.414;10.362;2024-01-06T06:42:34;9.80;99.90
18694;DHT22;9477;51.414;10.362;2024-01-06T06:44:37;9.60;99.90
18694;DHT22;9477;51.414;10.362;2024-01-06T06:46:41;9.70;99.90
18694;DHT22;9477;51.414;10.362;2024-01-06T06:48:44;9.60;99.90
18694;DHT22;9477;51.414;10.362;2024-01-06T06:50:47;9.60;99.90
18694;DHT22;9477;51.414;10.362;2024-01-06T06:52:50;9.60;99.90
18694;DHT22;9477;51.414;10.362;2024-01-06T06:54:53;9.60;99.90
18694;DHT22;9477;51.414;10.362;2024-01-06T06:56:55;9.70;99.90
18694;DHT22;9477;51.414;10.362;2024-01-06T06:58:58;9.70;99.90
18694;DHT22;9477;51.414;10.362;2024-01-06T07:01:01;9.80;99.90
18694;DHT22;9477;51.414;10.362;2024-01-06T07:03:05;9.90;99.90
18694;DHT22;9477;51.414;10.362;2024-01-06T07:05:08;9.90;99.90
18694;DHT22;9477;51.414;10.362;2024-01-06T07:07:11;10.00;99.90
18694;DHT22;9477;51.414;10.362;2024-01-06T07:09:14;10.00;99.90
18694;DHT22;9477;51.414;10.362;2024-01-06T07:11:17;10.10;99.90
18694;DHT22;9477;51.414;10.362;2024-01-06T07:13:21;10.10;99.90
18694;DHT22;9477;51.414;10.362;2024-01-06T07:15:23;10.10;99.90
18694;DHT22;9477;51.414;10.362;2024-01-06T07:17:26;10.10;99.90
18694;DHT22;9477;51.414;10.362;2024-01-06T07:19:31;10.20;99.90
18694;DHT22;9477;51.414;10.362;2024-01-06T07:21:35;10.20;99.90
18694;DHT22;9477;51.414;10.362;2024-01-06T07:23:38;10.10;99.90
18694;DHT22;9477;51.414;10.362;2024-01-06T07:25:44;10.10;99.90
18694;DHT22;9477;51.414;10.362;2024-01-06T07:27:47;10.10;99.90
18694;DHT22;9477;51.414;10.362;2024-01-06T07:29:50;10.10;99.90
18694;DHT22;9477;51.414;10.362;2024-01-06T07:31:53;10.10;99.90
18694;DHT22;9477;51.414;10.362;2024-01-06T07:33:56;10.10;99.90
18694;DHT22;9477;51.414;10.362;2024-01-06T07:36:00;10.10;99.90
18694;DHT22;9477;51.414;10.362;2024-01-06T07:38:03;10.10;99.90
18694;DHT22;9477;51.414;10.362;2024-01-06T07:40:07;10.00;99.90
18694;DHT22;9477;51.414;10.362;2024-01-06T07:42:09;10.10;99.90
18694;DHT22;9477;51.414;10.362;2024-01-06T07:44:13;10.10;99.90
18694;DHT22;9477;51.414;10.362;2024-01-06T07:46:17;10.10;99.90
18694;DHT22;9477;51.414;10.362;2024-01-06T07:48:21;10.10;99.90
18694;DHT22;9477;51.414;10.362;2024-01-06T07:50:23;10.10;99.90
18694;DHT22;9477;51.414;10.362;2024-01-06T07:52:27;10.00;99.90
18694;DHT22;9477;51.414;10.362;2024-01-06T07:54:30;10.00;99.90
18694;DHT22;9477;51.414;10.362;2024-01-06T07:56:33;10.10;99.90
18694;DHT22;9477;51.414;10.362;2024-01-06T07:58:35;10.10;99.90
18694;DHT22;9477;51.414;10.362;2024-01-06T08:00:38;10.10;99.90
18694;DHT22;9477;51.414;10.362;2024-01-06T08:02:41;10.10;99.90
18694;DHT22;9477;51.414;10.362;2024-01-06T08:04:44;10.20;99.90
18694;DHT22;9477;51.414;10.362;2024-01-06T08:06:47;10.20;99.90
18694;DHT22;9477;51.414;10.362;2024-01-06T08:08:52;10.20;99.90
18694;DHT22;9477;51.414;10.362;2024-01-06T08:10:56;10.20;99.90
18694;DHT22;9477;51.414;10.362;2024-01-06T08:12:59;10.20;99.90
18694;DHT22;9477;51.414;10.362;2024-01-06T08:15:02;10.20;99.90
18694;DHT22;9477;51.414;10.362;2024-01-06T08:17:07;10.20;99.90
18694;DHT22;9477;51.414;10.362;2024-01-06T08:19:10;10.20;99.90
18694;DHT22;9477;51.414;10.362;2024-01-06T08:21:13;10.20;99.90
18694;DHT22;9477;51.414;10.362;2024-01-06T08:23:15;10.20;99.90
18694;DHT22;9477;51.414;10.362;2024-01-06T08:25:21;10.30;99.90
18694;DHT22;9477;51.414;10.362;2024-01-06T08:27:24;10.30;99.90
18694;DHT22;9477;51.414;10.362;2024-01-06T08:29:27;10.20;99.90
18694;DHT22;9477;51.414;10.362;2024-01-06T08:31:29;10.20;99.90
18694;DHT22;9477;51.414;10.362;2024-01-06T08:33:32;10.30;99.90
18694;DHT22;9477;51.414;10.362;2024-01-06T08:35:34;10.30;99.90
18694;DHT22;9477;51.414;10.362;2024-01-06T08:37:42;10.30;99.90
18694;DHT22;9477;51.414;10.362;2024-01-06T08:39:44;10.30;99.90
18694;DHT22;9477;51.414;10.362;2024-01-06T08:41:49;10.30;99.90
18694;DHT22;9477;51.414;10.362;2024-01-06T08:43:52;10.30;99.90
18694;DHT22;9477;51.414;10.362;2024-01-06T08:45:55;10.30;99.90
18694;DHT22;9477;51.414;10.362;2024-01-06T08:47:58;10.40;99.90
18694;DHT22;9477;51.414;10.362;2024-01-06T08:50:01;10.40;99.90
18694;DHT22;9477;51.414;10.362;2024-01-06T08:52:05;10.40;99.90
18694;DHT22;9477;51.414;10.362;2024-01-06T08:54:08;10.40;99.90
18694;DHT22;9477;51.414;10.362;2024-01-06T08:56:10;10.40;99.90
18694;DHT22;9477;51.414;10.362;2024-01-06T08:58:14;10.40;99.90
18694;DHT22;9477;51.414;10.362;2024-01-06T09:00:18;10.40;99.90
18694;DHT22;9477;51.414;10.362;2024-01-06T09:02:20;10.40;99.90
18694;DHT22;9477;51.414;10.362;2024-01-06T09:04:23;10.40;99.90
18694;DHT22;9477;51.414;10.362;2024-01-06T09:06:26;10.40;99.90
18694;DHT22;9477;51.414;10.362;2024-01-06T09:08:28;10.40;99.90
18694;DHT22;9477;51.414;10.362;2024-01-06T09:10:31;10.40;99.90
18694;DHT22;9477;51.414;10.362;2024-01-06T09:12:34;10.40;99.90
18694;DHT22;9477;51.414;10.362;2024-01-06T09:14:38;10.40;99.90
18694;DHT22;9477;51.414;10.362;2024-01-06T09:16:42;10.50;99.90
18694;DHT22;9477;51.414;10.362;2024-01-06T09:18:45;10.50;99.90
18694;DHT22;9477;51.414;10.362;2024-01-06T09:20:48;10.50;99.90
18694;DHT22;9477;51.414;10.362;2024-01-06T09:22:50;10.50;99.90
18694;DHT22;9477;51.414;10.362;2024-01-06T09:24:53;10.50;99.90
18694;DHT22;9477;51.414;10.362;2024-01-06T09:26:56;10.50;99.90
18694;DHT22;9477;51.414;10.362;2024-01-06T09:28:58;10.60;99.90
18694;DHT22;9477;51.414;10.362;2024-01-06T09:31:02;10.60;99.90
18694;DHT22;9477;51.414;10.362;2024-01-06T09:33:06;10.70;99.90
18694;DHT22;9477;51.414;10.362;2024-01-06T09:35:10;10.70;99.90
18694;DHT22;9477;51.414;10.362;2024-01-06T09:37:12;10.70;99.90
18694;DHT22;9477;51.414;10.362;2024-01-06T09:39:15;10.70;99.90
18694;DHT22;9477;51.414;10.362;2024-01-06T09:41:18;10.60;99.90
18694;DHT22;9477;51.414;10.362;2024-01-06T09:43:23;10.60;99.90
18694;DHT22;9477;51.414;10.362;2024-01-06T09:45:25;10.60;99.90
18694;DHT22;9477;51.414;10.362;2024-01-06T09:47:33;10.60;99.90
18694;DHT22;9477;51.414;10.362;2024-01-06T09:49:38;10.70;99.90
18694;DHT22;9477;51.414;10.362;2024-01-06T09:51:45;10.70;99.90
18694;DHT22;9477;51.414;10.362;2024-01-06T09:53:56;10.70;99.90
18694;DHT22;9477;51.414;10.362;2024-01-06T09:56:00;10.70;99.90
18694;DHT22;9477;51.414;10.362;2024-01-06T09:58:04;10.70;99.90
18694;DHT22;9477;51.414;10.362;2024-01-06T10:00:09;10.80;99.90
18694;DHT22;9477;51.414;10.362;2024-01-06T10:02:14;10.80;99.90
18694;DHT22;9477;51.414;10.362;2024-01-06T10:04:19;10.80;99.90
18694;DHT22;9477;51.414;10.362;2024-01-06T10:06:25;10.80;99.90
18694;DHT22;9477;51.414;10.362;2024-01-06T10:08:29;10.80;99.90
18694;DHT22;9477;51.414;10.362;2024-01-06T10:10:34;10.80;99.90
18694;DHT22;9477;51.414;10.362;2024-01-06T10:12:37;10.80;99.90
18694;DHT22;9477;51.414;10.362;2024-01-06T10:14:40;10.80;99.90
18694;DHT22;9477;51.414;10.362;2024-01-06T10:16:43;10.80;99.90
18694;DHT22;9477;51.414;10.362;2024-01-06T10:18:46;10.80;99.90
18694;DHT22;9477;51.414;10.362;2024-01-06T10:20:56;10.90;99.90
18694;DHT22;9477;51.414;10.362;2024-01-06T10:23:04;10.80;99.90
18694;DHT22;9477;51.414;10.362;2024-01-06T10:25:08;10.90;99.90
18694;DHT22;9477;51.414;10.362;2024-01-06T10:27:11;10.90;99.90
18694;DHT22;9477;51.414;10.362;2024-01-06T10:29:15;10.90;99.90
18694;DHT22;9477;51.414;10.362;2024-01-06T10:31:17;10.90;99.90
18694;DHT22;9477;51.414;10.362;2024-01-06T10:33:21;10.90;99.90
18694;DHT22;9477;51.414;10.362;2024-01-06T10:35:25;10.80;99.90
18694;DHT22;9477;51.414;10.362;2024-01-06T10:37:29;10.80;99.90
18694;DHT22;9477;51.414;10.362;2024-01-06T10:39:33;10.80;99.90
18694;DHT22;9477;51.414;10.362;2024-01-06T10:41:41;10.80;99.90
18694;DHT22;9477;51.414;10.362;2024-01-06T10:43:44;10.80;99.90
18694;DHT22;9477;51.414;10.362;2024-01-06T10:45:46;10.80;99.90
18694;DHT22;9477;51.414;10.362;2024-01-06T10:47:50;10.80;99.90
18694;DHT22;9477;51.414;10.362;2024-01-06T10:49:53;10.90;99.90
18694;DHT22;9477;51.414;10.362;2024-01-06T10:52:04;10.90;99.90
18694;DHT22;9477;51.414;10.362;2024-01-06T10:54:09;10.90;99.90
18694;DHT22;9477;51.414;10.362;2024-01-06T10:56:13;10.90;99.90
18694;DHT22;9477;51.414;10.362;2024-01-06T10:58:17;10.90;99.90
18694;DHT22;9477;51.414;10.362;2024-01-06T11:00:24;10.90;99.90
18694;DHT22;9477;51.414;10.362;2024-01-06T11:02:33;10.90;99.90
18694;DHT22;9477;51.414;10.362;2024-01-06T11:04:37;10.90;99.90
18694;DHT22;9477;51.414;10.362;2024-01-06T11:06:42;10.90;99.90
18694;DHT22;9477;51.414;10.362;2024-01-06T11:08:56;10.90;99.90
18694;DHT22;9477;51.414;10.362;2024-01-06T11:11:06;10.90;99.90
18694;DHT22;9477;51.414;10.362;2024-01-06T11:13:11;11.00;99.90
18694;DHT22;9477;51.414;10.362;2024-01-06T11:15:39;10.90;99.90
18694;DHT22;9477;51.414;10.362;2024-01-06T11:17:51;10.90;99.90
18694;DHT22;9477;51.414;10.362;2024-01-06T11:20:05;10.90;99.90
18694;DHT22;9477;51.414;10.362;2024-01-06T11:22:24;10.90;99.90
18694;DHT22;9477;51.414;10.362;2024-01-06T11:24:36;11.00;99.90
18694;DHT22;9477;51.414;10.362;2024-01-06T11:26:41;11.00;99.90
18694;DHT22;9477;51.414;10.362;2024-01-06T11:28:45;11.00;99.90
18694;DHT22;9477;51.414;10.362;2024-01-06T11:31:05;11.00;99.90
18694;DHT22;9477;51.414;10.362;2024-01-06T11:33:08;11.00;99.90
18694;DHT22;9477;51.414;10.362;2024-01-06T11:35:13;11.00;99.90
18694;DHT22;9477;51.414;10.362;2024-01-06T11:37:23;11.10;99.90
18694;DHT22;9477;51.414;10.362;2024-01-06T11:39:34;11.10;99.90
18694;DHT22;9477;51.414;10.362;2024-01-06T11:41:51;11.10;99.90
18694;DHT22;9477;51.414;10.362;2024-01-06T11:43:54;11.10;99.90
18694;DHT22;9477;51.414;10.362;2024-01-06T11:45:58;11.10;99.90
18694;DHT22;9477;51.414;10.362;2024-01-06T11:48:04;11.10;99.90
18694;DHT22;9477;51.414;10.362;2024-01-06T11:50:10;11.10;99.90
18694;DHT22;9477;51.414;10.362;2024-01-06T11:52:14;11.10;99.90
18694;DHT22;9477;51.414;10.362;2024-01-06T11:54:19;11.00;99.90
18694;DHT22;9477;51.414;10.362;2024-01-06T11:56:25;11.00;99.90
18694;DHT22;9477;51.414;10.362;2024-01-06T11:58:29;10.90;99.90
18694;DHT22;9477;51.414;10.362;2024-01-06T12:00:33;10.90;99.90
18694;DHT22;9477;51.414;10.362;2024-01-06T12:02:38;10.90;99.90
18694;DHT22;9477;51.414;10.362;2024-01-06T12:04:40;10.90;99.90
18694;DHT22;9477;51.414;10.362;2024-01-06T12:06:43;11.00;99.90
18694;DHT22;9477;51.414;10.362;2024-01-06T12:08:46;11.00;99.90
18694;DHT22;9477;51.414;10.362;2024-01-06T12:10:49;11.10;99.90
18694;DHT22;9477;51.414;10.362;2024-01-06T12:12:56;11.10;99.90
18694;DHT22;9477;51.414;10.362;2024-01-06T12:15:02;11.10;99.90
18694;DHT22;9477;51.414;10.362;2024-01-06T12:17:04;11.10;99.90
18694;DHT22;9477;51.414;10.362;2024-01-06T12:19:07;11.10;99.90
18694;DHT22;9477;51.414;10.362;2024-01-06T12:21:10;11.10;99.90
18694;DHT22;9477;51.414;10.362;2024-01-06T12:23:23;11.10;99.90
18694;DHT22;9477;51.414;10.362;2024-01-06T12:25:26;11.10;99.90
18694;DHT22;9477;51.414;10.362;2024-01-06T12:27:30;11.20;99.90
18694;DHT22;9477;51.414;10.362;2024-01-06T12:29:33;11.20;99.90
18694;DHT22;9477;51.414;10.362;2024-01-06T12:31:41;11.20;99.90
18694;DHT22;9477;51.414;10.362;2024-01-06T12:33:44;11.10;99.90
18694;DHT22;9477;51.414;10.362;2024-01-06T12:35:48;11.10;99.90
18694;DHT22;9477;51.414;10.362;2024-01-06T12:37:51;11.10;99.90
18694;DHT22;9477;51.414;10.362;2024-01-06T12:39:57;11.10;99.90
18694;DHT22;9477;51.414;10.362;2024-01-06T12:42:01;11.10;99.90
18694;DHT22;9477;51.414;10.362;2024-01-06T12:44:03;11.10;99.90
18694;DHT22;9477;51.414;10.362;2024-01-06T12:46:06;11.10;99.90
18694;DHT22;9477;51.414;10.362;2024-01-06T12:48:09;11.00;99.90
18694;DHT22;9477;51.414;10.362;2024-01-06T12:50:13;11.10;99.90
18694;DHT22;9477;51.414;10.362;2024-01-06T12:52:16;11.10;99.90
18694;DHT22;9477;51.414;10.362;2024-01-06T12:54:19;11.10;99.90
18694;DHT22;9477;51.414;10.362;2024-01-06T12:56:22;11.10;99.90
18694;DHT22;9477;51.414;10.362;2024-01-06T12:58:24;11.20;99.90
18694;DHT22;9477;51.414;10.362;2024-01-06T13:00:27;11.20;99.90
18694;DHT22;9477;51.414;10.362;2024-01-06T13:02:30;11.20;99.90
18694;DHT22;9477;51.414;10.362;2024-01-06T13:04:34;11.20;99.90